Yreka, California
Current Conditions -  °F | °C
As of 6:21 AM on Thursday 29 Jan 2015 (Local Time) from KSIY Reporting Station
Moderate Fog Moderate Fog  
Wind Chill: 27°   Ceiling: 100
Heat Index: 27°   Visibility: 0.25mi
Dew Point: 25°   Wind: 0mph
Humidity: 92%   Direction: NA
Pressure: 30.28"   Gusts: NA
Location:  41.73°N, 122.63°W
Report Text: KSIY 291421Z AUTO 00000KT 1/4SM FZFG VV001 M03/M04 A3028 RMK AO2 I1000 T10281039
Loading
Personal Weather Stations






























Interactive Weather Map New forecast layout! Learn more

10-Day Weather Forecast

Advertisements
Track Severe Weather on mobile